Terminal Aerodrome Forecast
Issued by NWS

Home | Current Version | Previous Version | Text Only | Print | Product List | Glossary On
Versions: 1 2 3 4 5 6 7 8 9 10 11 12 13 14 15 16 17 18 19 20 21 22 23 24 25 26 27 28 29 30 31 32 33 34 35 36 37 38
667
FTUS41 KBOX 181510 AAA
TAFFMH
TAF AMD
KFMH 181510Z 1815/1912 VRB03KT P6SM FEW250
     FM181700 21011G20KT P6SM BKN200
     FM182200 20012G27KT P6SM OVC110
     FM190100 20012G30KT P6SM VCSH OVC100
     FM190400 21018G33KT P6SM VCSH OVC020
     FM190800 21022G37KT P6SM -RA OVC020
     FM191000 21025G39KT 6SM -SHRA BR OVC010=

USA.gov is the U.S. government's official web portal to all federal, state and local government web resources and services.